Time;durP1;ratioP1;P1;durP2;ratioP2;P2;SDS_P1;SDS_P2;PMS_P1;PMS_P2;Temp;Humidity;BMP_temperature;BMP_pressure;BME280_temperature;BME280_humidity;BME280_pressure;Samples;Min_cycle;Max_cycle;Signal;HPM_P1;HPM_P2
2021/04/03 00:00:49;;;;;;;4.70;3.50;;;6.60;89.50;;;;;;5056775;28;20195;-50
2021/04/03 00:03:16;;;;;;;4.10;3.70;;;6.50;89.40;;;;;;5057006;28;20168;-52
2021/04/03 00:05:42;;;;;;;4.40;3.40;;;6.40;89.20;;;;;;5057020;28;20194;-46
2021/04/03 00:08:09;;;;;;;4.07;3.67;;;6.40;89.70;;;;;;5066742;28;20201;-46
2021/04/03 00:10:41;;;;;;;4.60;3.67;;;6.40;89.80;;;;;;5071565;28;20198;-50
2021/04/03 00:13:07;;;;;;;3.80;3.40;;;6.30;90.00;;;;;;5064654;28;20186;-53
2021/04/03 00:15:32;;;;;;;5.20;4.03;;;6.30;90.00;;;;;;5064161;28;20206;-56
2021/04/03 00:17:58;;;;;;;4.67;3.73;;;6.20;89.40;;;;;;5056787;28;20182;-46
2021/04/03 00:20:27;;;;;;;4.17;3.77;;;6.00;89.80;;;;;;5056268;28;20180;-46
2021/04/03 00:22:53;;;;;;;4.57;4.10;;;5.90;90.10;;;;;;5054965;28;20170;-45
2021/04/03 00:25:19;;;;;;;3.73;3.33;;;5.80;90.60;;;;;;5067854;28;20210;-45
2021/04/03 00:27:45;;;;;;;3.90;3.50;;;5.70;90.90;;;;;;5067681;28;20193;-46
2021/04/03 00:30:17;;;;;;;3.80;3.20;;;5.70;91.20;;;;;;5076584;28;20206;-51
2021/04/03 00:32:43;;;;;;;4.63;3.80;;;5.70;91.40;;;;;;5076003;28;20171;-47
2021/04/03 00:35:10;;;;;;;4.13;3.73;;;5.60;91.80;;;;;;5075990;28;20201;-51
2021/04/03 00:37:36;;;;;;;4.50;3.67;;;5.50;92.10;;;;;;5063812;28;20203;-51
2021/04/03 00:40:16;;;;;;;4.20;3.40;;;5.50;92.50;;;;;;5067262;28;20233;-46
2021/04/03 00:42:43;;;;;;;3.80;3.50;;;5.50;92.90;;;;;;5070514;28;20600;-52
2021/04/03 00:45:09;;;;;;;4.33;3.27;;;5.50;93.10;;;;;;5059691;28;20187;-46
2021/04/03 00:47:35;;;;;;;3.93;3.53;;;5.60;93.20;;;;;;5053201;28;20175;-46
2021/04/03 00:50:01;;;;;;;4.23;3.40;;;5.60;93.20;;;;;;5053797;28;20263;-52
2021/04/03 00:52:26;;;;;;;3.73;3.43;;;5.70;93.10;;;;;;5053369;28;20535;-50
2021/04/03 00:54:52;;;;;;;3.80;3.43;;;5.70;93.00;;;;;;5052505;28;20187;-52
2021/04/03 00:57:18;;;;;;;3.80;3.40;;;5.60;93.20;;;;;;5053447;28;20198;-49
2021/04/03 00:59:44;;;;;;;4.00;3.60;;;5.50;93.50;;;;;;5053457;28;20174;-51
2021/04/03 01:02:09;;;;;;;3.67;3.30;;;5.60;93.60;;;;;;5055658;28;20194;-50
2021/04/03 01:04:36;;;;;;;3.80;3.40;;;5.50;93.60;;;;;;5055926;28;20179;-45
2021/04/03 01:07:02;;;;;;;5.53;4.10;;;5.50;93.70;;;;;;5056241;28;20198;-52
2021/04/03 01:09:27;;;;;;;3.97;3.57;;;5.60;93.70;;;;;;5055587;28;20202;-51
2021/04/03 01:12:30;;;;;;;4.60;3.60;;;5.60;93.70;;;;;;5054607;28;20183;-46
2021/04/03 01:15:20;;;;;;;3.97;3.60;;;5.60;93.90;;;;;;5056119;28;20181;-47
2021/04/03 01:18:00;;;;;;;4.33;3.90;;;5.50;94.30;;;;;;5054831;28;20172;-45
2021/04/03 01:20:48;;;;;;;3.47;3.10;;;5.50;94.60;;;;;;5055615;28;20175;-45
2021/04/03 01:23:51;;;;;;;3.97;3.20;;;5.50;95.00;;;;;;5055620;28;20519;-46
2021/04/03 01:26:54;;;;;;;4.77;3.30;;;5.40;95.30;;;;;;5055433;28;20190;-45
2021/04/03 01:29:41;;;;;;;3.47;3.17;;;5.20;96.10;;;;;;5057031;28;20202;-45
2021/04/03 01:32:09;;;;;;;4.07;3.57;;;5.10;97.80;;;;;;5069025;28;20506;-48
2021/04/03 01:34:39;;;;;;;3.70;3.40;;;5.00;98.40;;;;;;5062251;28;20175;-51
2021/04/03 01:37:09;;;;;;;3.93;3.53;;;5.10;98.60;;;;;;5057903;28;20693;-45
2021/04/03 01:39:37;;;;;;;3.93;3.53;;;5.20;99.10;;;;;;5073815;28;20246;-52
2021/04/03 01:42:07;;;;;;;3.93;3.53;;;5.40;99.10;;;;;;5072189;28;20190;-51
2021/04/03 01:44:36;;;;;;;3.40;2.97;;;5.50;99.10;;;;;;5055130;28;20225;-46
2021/04/03 01:47:04;;;;;;;5.93;3.60;;;5.60;98.70;;;;;;5055808;28;20195;-53
2021/04/03 01:49:31;;;;;;;3.70;3.40;;;5.70;98.70;;;;;;5055246;28;20207;-51
2021/04/03 01:51:58;;;;;;;4.30;3.83;;;5.80;98.30;;;;;;5054914;28;20528;-52
2021/04/03 01:54:25;;;;;;;3.40;3.10;;;5.90;98.50;;;;;;5059736;28;20277;-50
2021/04/03 01:56:52;;;;;;;4.17;3.20;;;5.90;98.60;;;;;;5074592;28;20551;-45
2021/04/03 01:59:18;;;;;;;4.07;3.50;;;5.90;98.60;;;;;;5070166;28;20198;-52
2021/04/03 02:01:45;;;;;;;3.87;3.10;;;6.00;98.90;;;;;;5053791;28;20168;-45
2021/04/03 02:04:13;;;;;;;4.30;3.67;;;6.00;98.80;;;;;;5054484;28;20171;-46
2021/04/03 02:06:47;;;;;;;3.43;3.13;;;6.00;98.50;;;;;;5055123;28;20195;-49
2021/04/03 02:09:14;;;;;;;3.63;3.30;;;6.00;98.10;;;;;;5066028;28;20704;-54
2021/04/03 02:11:44;;;;;;;4.73;3.50;;;6.00;98.30;;;;;;5074117;28;20205;-46
2021/04/03 02:14:10;;;;;;;5.13;3.50;;;6.00;98.10;;;;;;5073447;28;20217;-51
2021/04/03 02:16:37;;;;;;;4.80;3.57;;;6.10;98.10;;;;;;5067795;28;20195;-46
2021/04/03 02:19:08;;;;;;;4.10;3.67;;;6.10;98.50;;;;;;5053596;28;20172;-46
2021/04/03 02:21:35;;;;;;;4.70;3.70;;;6.20;98.00;;;;;;5055525;28;20175;-55
2021/04/03 02:24:02;;;;;;;4.63;3.87;;;6.20;97.80;;;;;;5054503;28;20242;-46
2021/04/03 02:26:35;;;;;;;4.27;3.87;;;6.30;97.50;;;;;;5057335;28;20611;-48
2021/04/03 02:29:03;;;;;;;4.67;4.13;;;6.30;97.40;;;;;;5070966;28;20276;-47
2021/04/03 02:31:29;;;;;;;6.17;3.70;;;6.30;97.70;;;;;;5053344;28;20175;-54
2021/04/03 02:33:55;;;;;;;5.10;3.87;;;6.30;97.70;;;;;;5064939;28;20174;-45
2021/04/03 02:36:21;;;;;;;5.03;4.03;;;6.30;97.60;;;;;;5074168;28;20756;-53
2021/04/03 02:38:49;;;;;;;4.03;3.63;;;6.20;97.90;;;;;;5064699;28;20262;-51
2021/04/03 02:41:22;;;;;;;4.87;4.00;;;6.20;97.80;;;;;;5053957;28;20213;-45
2021/04/03 02:44:10;;;;;;;5.20;4.03;;;6.10;97.70;;;;;;5059410;28;20162;-50
2021/04/03 02:46:44;;;;;;;7.33;4.03;;;6.00;97.20;;;;;;5073106;28;20201;-46
2021/04/03 02:49:19;;;;;;;5.33;4.10;;;5.90;97.60;;;;;;5061713;28;20199;-49
2021/04/03 02:51:47;;;;;;;6.50;3.80;;;5.90;97.50;;;;;;5054248;28;20295;-46
2021/04/03 02:54:16;;;;;;;4.10;3.63;;;6.00;98.10;;;;;;5064791;28;20646;-50
2021/04/03 02:56:44;;;;;;;4.23;3.83;;;6.10;97.90;;;;;;5073634;28;20206;-46
2021/04/03 02:59:29;;;;;;;4.77;4.00;;;6.20;98.00;;;;;;5069420;28;20178;-53
2021/04/03 03:01:57;;;;;;;4.77;3.93;;;6.20;98.10;;;;;;5073035;28;20200;-46
2021/04/03 03:04:24;;;;;;;4.93;4.20;;;6.10;98.90;;;;;;5062044;28;20237;-47
2021/04/03 03:06:51;;;;;;;5.23;3.80;;;6.10;99.40;;;;;;5053934;28;20199;-45
2021/04/03 03:09:18;;;;;;;4.97;4.03;;;6.00;99.30;;;;;;5053872;28;20175;-55
2021/04/03 03:11:46;;;;;;;4.60;4.03;;;5.90;99.70;;;;;;5053602;28;20561;-50
2021/04/03 03:14:13;;;;;;;5.53;4.20;;;6.00;99.60;;;;;;5063386;28;20186;-46
2021/04/03 03:16:40;;;;;;;6.23;4.07;;;6.10;99.50;;;;;;5071121;28;20186;-46
2021/04/03 03:19:08;;;;;;;5.53;4.60;;;6.10;99.40;;;;;;5053560;28;20675;-47
2021/04/03 03:21:35;;;;;;;4.27;3.73;;;6.20;99.20;;;;;;5052646;28;20229;-52
2021/04/03 03:24:01;;;;;;;6.60;4.20;;;6.20;99.00;;;;;;5057319;28;20205;-51
2021/04/03 03:26:31;;;;;;;4.63;4.10;;;6.30;99.10;;;;;;5057089;28;20199;-50
2021/04/03 03:28:58;;;;;;;4.30;3.90;;;6.20;99.10;;;;;;5075338;28;20174;-51
2021/04/03 03:31:24;;;;;;;5.00;4.50;;;6.10;99.20;;;;;;5076574;28;20201;-53
2021/04/03 03:33:49;;;;;;;5.50;4.10;;;6.00;99.90;;;;;;5074606;28;20174;-45
2021/04/03 03:36:15;;;;;;;4.10;3.70;;;5.80;99.90;;;;;;5057493;28;20207;-45
2021/04/03 03:38:41;;;;;;;4.67;4.07;;;5.80;99.90;;;;;;5058664;28;20534;-51
2021/04/03 03:41:07;;;;;;;5.27;4.43;;;5.80;99.90;;;;;;5056586;28;20199;-50
2021/04/03 03:43:33;;;;;;;4.40;4.00;;;5.70;99.90;;;;;;5057572;28;20171;-46
2021/04/03 03:45:59;;;;;;;5.07;4.30;;;5.60;99.90;;;;;;5058489;28;20543;-50
2021/04/03 03:48:25;;;;;;;4.40;3.57;;;5.60;99.90;;;;;;5069126;28;20202;-46
2021/04/03 03:50:50;;;;;;;4.30;3.90;;;5.60;99.90;;;;;;5077519;28;20250;-46
2021/04/03 03:53:16;;;;;;;5.23;4.00;;;5.60;99.90;;;;;;5072096;28;20176;-45
2021/04/03 03:55:41;;;;;;;4.50;3.97;;;5.60;99.90;;;;;;5065866;28;20187;-49
2021/04/03 03:58:07;;;;;;;5.87;4.43;;;5.60;99.90;;;;;;5066609;28;20174;-46
2021/04/03 04:00:32;;;;;;;5.37;3.90;;;5.60;99.90;;;;;;5068995;28;20231;-45
2021/04/03 04:02:58;;;;;;;6.37;4.90;;;5.70;99.90;;;;;;5068395;28;20262;-54
2021/04/03 04:05:23;;;;;;;5.87;4.47;;;5.70;99.90;;;;;;5066690;28;20222;-53
2021/04/03 04:07:49;;;;;;;6.40;4.73;;;5.60;99.90;;;;;;5061867;28;20240;-52
2021/04/03 04:10:15;;;;;;;5.63;4.87;;;5.60;99.90;;;;;;5066130;28;20187;-47
2021/04/03 04:12:40;;;;;;;6.10;4.57;;;5.60;99.90;;;;;;5065215;28;20166;-50
2021/04/03 04:15:08;;;;;;;5.53;4.90;;;5.60;99.90;;;;;;5067619;28;20271;-50
2021/04/03 04:17:34;;;;;;;6.67;4.87;;;5.60;99.90;;;;;;5071361;28;20253;-51
2021/04/03 04:20:00;;;;;;;5.93;5.00;;;5.60;99.90;;;;;;5057137;28;20179;-45
2021/04/03 04:22:25;;;;;;;7.07;5.53;;;5.50;99.90;;;;;;5069834;28;20289;-45
2021/04/03 04:24:51;;;;;;;6.77;5.37;;;5.50;99.90;;;;;;5077212;28;20622;-53
2021/04/03 04:27:16;;;;;;;5.90;4.80;;;5.40;99.90;;;;;;5068468;28;20210;-54
2021/04/03 04:29:42;;;;;;;6.37;4.50;;;5.40;99.90;;;;;;5056424;28;20210;-47
2021/04/03 04:32:07;;;;;;;6.27;5.20;;;5.40;99.90;;;;;;5056505;28;20254;-52
2021/04/03 04:34:33;;;;;;;7.10;5.33;;;5.40;99.90;;;;;;5056196;28;20218;-49
2021/04/03 04:36:58;;;;;;;7.33;5.23;;;5.40;99.90;;;;;;5056544;28;20259;-51
2021/04/03 04:39:25;;;;;;;6.63;5.40;;;5.40;99.90;;;;;;5066134;28;20708;-47
2021/04/03 04:41:51;;;;;;;6.20;5.10;;;5.40;99.90;;;;;;5058999;28;20290;-48
2021/04/03 04:44:16;;;;;;;7.33;5.70;;;5.30;99.90;;;;;;5060717;28;20198;-45
2021/04/03 04:46:42;;;;;;;7.33;5.03;;;5.30;99.90;;;;;;5076327;28;20228;-54
2021/04/03 04:49:07;;;;;;;9.97;5.23;;;5.30;99.90;;;;;;5075836;28;20205;-51
2021/04/03 04:51:33;;;;;;;8.00;5.40;;;5.30;99.90;;;;;;5074911;28;20186;-46
2021/04/03 04:53:58;;;;;;;6.87;5.23;;;5.30;99.90;;;;;;5076266;28;20183;-46
2021/04/03 04:56:24;;;;;;;7.87;5.80;;;5.20;99.90;;;;;;5072507;28;20221;-46
2021/04/03 04:58:50;;;;;;;8.63;5.57;;;5.10;99.90;;;;;;5056529;28;20179;-52
2021/04/03 05:01:15;;;;;;;7.60;5.60;;;5.00;99.90;;;;;;5055823;28;20543;-46
2021/04/03 05:03:41;;;;;;;7.03;5.30;;;5.00;99.90;;;;;;5057264;28;20531;-55
2021/04/03 05:06:06;;;;;;;9.50;5.93;;;5.10;99.90;;;;;;5065037;28;20187;-45
2021/04/03 05:08:32;;;;;;;9.47;5.77;;;5.10;99.90;;;;;;5057129;28;20182;-50
2021/04/03 05:10:57;;;;;;;8.17;6.27;;;5.00;99.90;;;;;;5054503;28;20226;-53
2021/04/03 05:13:23;;;;;;;10.60;7.00;;;4.90;99.90;;;;;;5071657;28;20182;-50
2021/04/03 05:15:54;;;;;;;8.80;6.13;;;4.90;99.90;;;;;;5075715;28;20661;-53
2021/04/03 05:18:19;;;;;;;8.90;6.47;;;5.00;99.90;;;;;;5061454;28;20182;-52
2021/04/03 05:20:45;;;;;;;8.27;6.33;;;5.10;99.90;;;;;;5055817;28;20183;-47
2021/04/03 05:23:10;;;;;;;10.33;6.20;;;5.20;99.90;;;;;;5068770;28;20182;-45
2021/04/03 05:25:36;;;;;;;9.63;6.60;;;5.40;99.90;;;;;;5074470;28;20210;-46
2021/04/03 05:28:01;;;;;;;10.23;6.57;;;5.50;99.90;;;;;;5072621;28;20269;-45
2021/04/03 05:30:27;;;;;;;9.40;6.00;;;5.50;99.90;;;;;;5074743;28;20202;-52
2021/04/03 05:32:52;;;;;;;10.80;5.97;;;5.60;99.90;;;;;;5073702;28;20614;-45
2021/04/03 05:35:18;;;;;;;7.90;5.80;;;5.60;99.90;;;;;;5075357;28;20198;-54
2021/04/03 05:37:45;;;;;;;7.63;6.00;;;5.70;99.90;;;;;;5070238;28;20207;-50
2021/04/03 05:40:11;;;;;;;7.97;5.80;;;5.70;99.90;;;;;;5061651;28;20646;-46
2021/04/03 05:42:38;;;;;;;8.27;6.37;;;5.70;99.90;;;;;;5067683;28;20178;-48
2021/04/03 05:45:05;;;;;;;9.37;5.87;;;5.70;99.90;;;;;;5064956;28;20640;-45
2021/04/03 05:47:35;;;;;;;9.43;6.20;;;5.80;99.90;;;;;;5076004;28;20541;-53
2021/04/03 05:50:03;;;;;;;8.40;6.07;;;5.90;99.90;;;;;;5071388;28;20221;-50
2021/04/03 05:52:28;;;;;;;8.53;6.20;;;6.10;99.90;;;;;;5074677;28;20205;-52
2021/04/03 05:54:54;;;;;;;10.53;6.47;;;5.80;99.90;;;;;;5065847;28;20600;-45
2021/04/03 05:57:21;;;;;;;8.47;5.83;;;5.80;99.90;;;;;;5065463;28;20202;-51
2021/04/03 05:59:48;;;;;;;9.83;6.20;;;5.90;99.90;;;;;;5068085;28;20597;-47
2021/04/03 06:02:14;;;;;;;9.63;6.53;;;5.90;99.90;;;;;;5065552;28;20203;-45
2021/04/03 06:04:40;;;;;;;7.60;5.70;;;5.90;99.90;;;;;;5054448;28;20212;-52
2021/04/03 06:07:05;;;;;;;9.97;6.27;;;5.90;99.90;;;;;;5055261;28;20207;-54
2021/04/03 06:09:31;;;;;;;12.40;7.20;;;5.80;99.90;;;;;;5054509;28;20264;-47
2021/04/03 06:11:57;;;;;;;9.13;7.27;;;5.70;99.90;;;;;;5054893;28;20190;-49
2021/04/03 06:14:22;;;;;;;10.00;6.90;;;5.70;99.90;;;;;;5059525;28;20185;-46
2021/04/03 06:16:52;;;;;;;11.30;7.30;;;5.70;99.90;;;;;;5054170;28;20203;-53
2021/04/03 06:19:22;;;;;;;10.07;7.17;;;5.80;99.90;;;;;;5061539;28;20186;-53
2021/04/03 06:21:55;;;;;;;12.47;7.37;;;6.00;99.90;;;;;;5073666;28;20173;-45
2021/04/03 06:24:30;;;;;;;6.97;5.60;;;6.20;99.90;;;;;;5074758;28;20296;-54
2021/04/03 06:27:08;;;;;;;7.87;5.57;;;6.20;99.90;;;;;;5067540;28;20206;-45
2021/04/03 06:29:43;;;;;;;7.27;5.30;;;6.10;99.90;;;;;;5054833;28;20202;-55
2021/04/03 06:32:21;;;;;;;6.80;5.33;;;6.10;99.90;;;;;;5053818;28;20198;-50
2021/04/03 06:34:50;;;;;;;8.47;5.67;;;6.30;99.90;;;;;;5074216;28;20170;-46
2021/04/03 06:37:28;;;;;;;7.70;5.10;;;6.20;99.90;;;;;;5073951;28;20214;-52
2021/04/03 06:40:00;;;;;;;9.80;5.70;;;6.40;99.90;;;;;;5074183;28;20189;-50
2021/04/03 06:42:55;;;;;;;8.93;5.60;;;6.40;99.90;;;;;;5075497;28;20265;-45
2021/04/03 06:45:28;;;;;;;9.33;5.60;;;6.40;99.90;;;;;;5076376;28;20210;-45
2021/04/03 06:48:05;;;;;;;9.73;5.67;;;6.50;99.90;;;;;;5079620;28;20166;-46
2021/04/03 06:50:36;;;;;;;7.73;5.47;;;6.50;99.90;;;;;;5066486;28;20256;-47
2021/04/03 06:53:07;;;;;;;8.07;5.93;;;6.30;99.90;;;;;;5088365;28;20180;-52
2021/04/03 06:55:33;;;;;;;6.70;5.40;;;6.30;99.90;;;;;;5073473;28;20681;-54
2021/04/03 06:58:03;;;;;;;8.20;5.80;;;6.40;99.90;;;;;;5085995;28;20181;-48
2021/04/03 07:00:30;;;;;;;9.57;6.03;;;6.40;99.90;;;;;;5064430;28;20206;-54
2021/04/03 07:03:05;;;;;;;8.70;6.07;;;6.40;99.90;;;;;;5069462;28;20547;-52
2021/04/03 07:05:35;;;;;;;9.43;5.97;;;6.40;99.90;;;;;;5065335;28;20190;-47
2021/04/03 07:08:06;;;;;;;10.50;5.97;;;6.30;99.90;;;;;;5070806;28;20228;-53
2021/04/03 07:10:34;;;;;;;9.83;5.27;;;6.30;99.90;;;;;;5066403;28;20274;-49
2021/04/03 07:13:00;;;;;;;9.83;5.07;;;6.20;99.90;;;;;;5065918;28;20189;-51
2021/04/03 07:15:27;;;;;;;7.77;4.70;;;6.30;99.90;;;;;;5067878;28;20225;-52
2021/04/03 07:17:53;;;;;;;8.83;4.93;;;6.40;99.90;;;;;;5066703;28;20186;-53
2021/04/03 07:20:21;;;;;;;8.27;5.10;;;6.40;99.90;;;;;;5073445;28;20539;-45
2021/04/03 07:22:59;;;;;;;7.00;4.40;;;6.40;99.90;;;;;;5063786;28;20973;-48
2021/04/03 07:25:31;;;;;;;7.47;4.60;;;6.30;99.90;;;;;;5066437;28;20734;-47
2021/04/03 07:27:57;;;;;;;5.03;3.90;;;6.30;99.90;;;;;;5054606;28;20274;-53
2021/04/03 07:30:38;;;;;;;6.00;4.17;;;6.30;99.90;;;;;;5057394;28;20621;-46
2021/04/03 07:33:21;;;;;;;5.77;4.77;;;6.40;99.90;;;;;;5059026;28;20214;-52
2021/04/03 07:36:00;;;;;;;11.70;8.83;;;6.40;99.90;;;;;;5057374;28;20567;-46
2021/04/03 07:38:28;;;;;;;7.47;3.83;;;6.60;99.90;;;;;;5064473;28;20194;-46
2021/04/03 07:40:55;;;;;;;15.77;10.83;;;6.70;99.90;;;;;;5062446;28;20196;-48
2021/04/03 07:43:36;;;;;;;6.50;4.63;;;6.70;99.90;;;;;;5058619;28;20193;-48
2021/04/03 07:46:20;;;;;;;7.90;6.53;;;6.70;99.90;;;;;;5060796;28;20290;-48
2021/04/03 07:48:59;;;;;;;8.47;5.30;;;6.70;99.90;;;;;;5058941;28;20194;-46
2021/04/03 07:51:24;;;;;;;7.50;4.50;;;6.80;99.90;;;;;;5065497;28;20210;-53
2021/04/03 07:53:52;;;;;;;6.33;4.33;;;6.80;99.90;;;;;;5053540;28;20182;-53
2021/04/03 07:56:20;;;;;;;5.07;4.20;;;6.90;99.90;;;;;;5053069;28;20198;-58
2021/04/03 07:58:48;;;;;;;4.87;4.07;;;7.00;99.90;;;;;;5066774;28;20273;-56
2021/04/03 08:01:15;;;;;;;14.87;10.60;;;7.20;99.90;;;;;;5076538;28;20182;-46
2021/04/03 08:03:40;;;;;;;19.03;17.03;;;7.30;99.90;;;;;;5072768;28;20190;-56
2021/04/03 08:06:08;;;;;;;6.53;4.80;;;7.40;99.90;;;;;;5070326;28;20206;-51
2021/04/03 08:08:40;;;;;;;6.50;4.43;;;7.50;99.90;;;;;;5067235;28;20229;-46
2021/04/03 08:11:13;;;;;;;6.40;4.47;;;7.60;99.80;;;;;;5079685;28;20676;-47
2021/04/03 08:13:43;;;;;;;7.83;6.73;;;7.80;99.90;;;;;;5092192;28;20267;-57
2021/04/03 08:16:11;;;;;;;4.30;3.10;;;7.90;99.40;;;;;;5089946;28;20205;-47
2021/04/03 08:18:39;;;;;;;32.77;17.40;;;7.80;98.40;;;;;;5079455;28;20642;-53
2021/04/03 08:21:06;;;;;;;10.37;5.30;;;7.80;99.40;;;;;;5072407;28;20189;-48
2021/04/03 08:23:37;;;;;;;22.37;13.93;;;7.90;98.70;;;;;;5072274;28;20545;-50
2021/04/03 08:26:04;;;;;;;5.93;4.17;;;7.70;99.80;;;;;;5078538;28;20221;-53
2021/04/03 08:28:30;;;;;;;7.47;4.77;;;7.50;99.70;;;;;;5068132;28;20232;-56
2021/04/03 08:30:56;;;;;;;7.73;5.00;;;7.50;99.90;;;;;;5076504;28;20685;-50
2021/04/03 08:33:22;;;;;;;6.23;4.17;;;7.60;99.90;;;;;;5088608;28;20186;-53
2021/04/03 08:35:50;;;;;;;14.97;11.27;;;7.70;99.90;;;;;;5077275;28;20243;-47
2021/04/03 08:38:24;;;;;;;5.53;4.30;;;7.70;99.90;;;;;;5087739;28;20553;-53
2021/04/03 08:40:53;;;;;;;4.27;2.77;;;7.80;99.50;;;;;;5087938;28;20181;-47
2021/04/03 08:43:24;;;;;;;4.50;3.10;;;8.20;98.00;;;;;;5080675;28;20182;-56
2021/04/03 08:45:51;;;;;;;4.67;3.43;;;8.00;99.30;;;;;;5063392;28;20252;-56
2021/04/03 08:48:16;;;;;;;4.33;3.30;;;7.80;99.60;;;;;;5088506;28;20244;-49
2021/04/03 08:50:45;;;;;;;5.17;3.47;;;7.60;99.90;;;;;;5074993;28;20690;-52
2021/04/03 08:53:10;;;;;;;5.17;3.53;;;7.60;99.90;;;;;;5088454;28;20189;-51
2021/04/03 08:55:36;;;;;;;6.07;3.43;;;7.50;99.90;;;;;;5079147;28;20201;-51
2021/04/03 08:58:04;;;;;;;5.37;3.73;;;7.30;99.90;;;;;;5089430;28;20262;-54
2021/04/03 09:00:30;;;;;;;4.40;3.20;;;7.40;99.90;;;;;;5086752;28;20181;-55
2021/04/03 09:02:57;;;;;;;4.40;3.40;;;7.60;99.90;;;;;;5088901;28;20190;-52
2021/04/03 09:05:23;;;;;;;4.83;3.03;;;8.00;99.90;;;;;;5078360;28;20228;-56
2021/04/03 09:07:50;;;;;;;4.67;3.33;;;8.20;99.90;;;;;;5090804;28;20630;-52
2021/04/03 09:10:18;;;;;;;5.20;3.57;;;8.30;99.90;;;;;;5065724;28;20295;-53
2021/04/03 09:12:45;;;;;;;6.87;3.33;;;8.20;99.90;;;;;;5065890;28;20175;-52
2021/04/03 09:15:11;;;;;;;4.43;3.20;;;8.10;99.70;;;;;;5068225;28;20210;-49
2021/04/03 09:17:47;;;;;;;3.73;3.00;;;8.30;99.10;;;;;;5086323;28;20177;-53
2021/04/03 09:20:14;;;;;;;3.90;2.80;;;8.40;99.20;;;;;;5054863;28;20634;-54
2021/04/03 09:22:43;;;;;;;3.37;2.90;;;8.90;98.10;;;;;;5063188;28;20205;-57
2021/04/03 09:25:10;;;;;;;4.07;2.90;;;9.30;97.30;;;;;;5060281;28;20189;-53
2021/04/03 09:27:37;;;;;;;4.57;3.00;;;9.30;96.60;;;;;;5058526;28;20225;-51
2021/04/03 09:30:06;;;;;;;5.47;3.40;;;9.50;97.20;;;;;;5058531;28;20214;-46
2021/04/03 09:32:49;;;;;;;3.57;2.90;;;9.90;95.80;;;;;;5063168;28;20182;-53
2021/04/03 09:35:26;;;;;;;5.83;3.93;;;10.10;94.10;;;;;;5069516;28;20292;-47
2021/04/03 09:38:03;;;;;;;4.07;3.57;;;10.20;94.70;;;;;;5074721;28;20548;-46
2021/04/03 09:40:36;;;;;;;4.07;3.60;;;10.10;94.70;;;;;;5062842;28;20178;-56
2021/04/03 09:43:03;;;;;;;5.83;3.43;;;9.70;94.80;;;;;;5064799;28;20696;-54
2021/04/03 09:45:28;;;;;;;5.50;3.77;;;9.70;94.80;;;;;;5077851;28;20553;-53
2021/04/03 09:48:00;;;;;;;4.33;3.13;;;9.90;96.60;;;;;;5074516;28;20634;-51
2021/04/03 09:50:26;;;;;;;5.27;3.50;;;9.80;93.00;;;;;;5067810;28;20207;-47
2021/04/03 09:52:53;;;;;;;4.53;3.27;;;9.70;94.20;;;;;;5062558;28;20635;-51
2021/04/03 09:55:19;;;;;;;5.70;3.00;;;9.80;92.50;;;;;;5054489;28;20206;-46
2021/04/03 09:57:45;;;;;;;4.47;3.30;;;9.70;93.20;;;;;;5074203;28;20197;-54
2021/04/03 10:00:11;;;;;;;3.83;2.97;;;9.60;91.80;;;;;;5073400;28;20182;-52
2021/04/03 10:02:37;;;;;;;5.47;3.70;;;9.30;93.90;;;;;;5063375;28;20185;-52
2021/04/03 10:05:04;;;;;;;9.67;3.97;;;9.30;94.90;;;;;;5065047;28;20187;-46
2021/04/03 10:07:30;;;;;;;6.00;3.60;;;9.40;94.80;;;;;;5072370;28;20598;-48
2021/04/03 10:09:55;;;;;;;5.40;3.33;;;9.60;95.00;;;;;;5070280;28;20718;-47
2021/04/03 10:12:21;;;;;;;6.37;3.33;;;9.70;94.60;;;;;;5076363;28;20587;-56
2021/04/03 10:14:46;;;;;;;5.57;3.30;;;9.50;92.60;;;;;;5076776;28;20170;-47
2021/04/03 10:17:12;;;;;;;6.60;3.27;;;9.50;93.40;;;;;;5060776;28;20555;-49
2021/04/03 10:19:37;;;;;;;5.47;3.20;;;9.40;92.90;;;;;;5067681;28;20209;-52
2021/04/03 10:22:04;;;;;;;4.83;3.40;;;9.50;92.90;;;;;;5072112;28;20269;-48
2021/04/03 10:24:29;;;;;;;3.77;3.23;;;9.50;91.20;;;;;;5056827;28;20210;-50
2021/04/03 10:26:55;;;;;;;4.13;3.00;;;9.40;91.60;;;;;;5067247;28;20218;-54
2021/04/03 10:29:21;;;;;;;4.70;3.47;;;9.60;92.60;;;;;;5058511;28;20323;-48
2021/04/03 10:31:46;;;;;;;4.37;3.50;;;9.90;91.40;;;;;;5073781;28;20610;-50
2021/04/03 10:34:12;;;;;;;4.93;3.33;;;10.10;91.30;;;;;;5061828;28;20683;-55
2021/04/03 10:36:37;;;;;;;6.53;3.33;;;10.10;89.30;;;;;;5085908;28;20217;-52
2021/04/03 10:39:03;;;;;;;4.60;3.27;;;10.20;90.10;;;;;;5083001;28;20245;-49
2021/04/03 10:41:29;;;;;;;7.00;3.60;;;10.40;87.70;;;;;;5078876;28;20174;-47
2021/04/03 10:43:54;;;;;;;5.13;3.23;;;10.60;87.30;;;;;;5074421;28;20193;-47
2021/04/03 10:46:20;;;;;;;4.97;3.20;;;10.80;85.60;;;;;;5066110;28;20226;-54
2021/04/03 10:48:45;;;;;;;3.10;2.53;;;10.80;88.80;;;;;;5081039;28;20181;-54
2021/04/03 10:51:11;;;;;;;3.50;2.80;;;11.50;88.20;;;;;;5083649;28;20226;-47
2021/04/03 10:53:37;;;;;;;3.33;2.50;;;12.20;82.30;;;;;;5067126;28;20178;-49
2021/04/03 10:56:02;;;;;;;2.57;2.37;;;12.80;77.80;;;;;;5072565;28;20600;-53
2021/04/03 10:58:28;;;;;;;4.50;2.80;;;13.00;75.30;;;;;;5073314;28;20202;-56
2021/04/03 11:00:54;;;;;;;2.97;2.50;;;13.20;73.40;;;;;;5070341;28;20180;-54
2021/04/03 11:03:19;;;;;;;4.03;2.43;;;13.20;75.30;;;;;;5084776;28;20273;-47
2021/04/03 11:05:45;;;;;;;3.57;2.80;;;13.00;77.90;;;;;;5075671;28;20206;-49
2021/04/03 11:08:11;;;;;;;3.67;3.07;;;12.70;80.10;;;;;;5083800;28;20231;-48
2021/04/03 11:10:36;;;;;;;3.63;2.90;;;12.40;78.70;;;;;;5078454;28;20195;-47
2021/04/03 11:13:03;;;;;;;4.10;2.93;;;12.20;79.20;;;;;;5075934;28;20190;-53
2021/04/03 11:15:29;;;;;;;5.10;3.10;;;12.00;82.40;;;;;;5071702;28;20201;-51
2021/04/03 11:17:54;;;;;;;6.40;3.30;;;11.80;86.30;;;;;;5074595;28;20220;-53
2021/04/03 11:20:20;;;;;;;4.87;3.30;;;11.20;87.50;;;;;;5073391;28;20193;-50
2021/04/03 11:22:47;;;;;;;4.83;3.40;;;10.50;90.80;;;;;;5083246;28;20252;-55
2021/04/03 11:25:14;;;;;;;3.73;3.33;;;9.90;92.70;;;;;;5034706;28;20182;-57
2021/04/03 11:27:40;;;;;;;5.77;3.50;;;9.20;93.40;;;;;;5059792;28;20174;-56
2021/04/03 11:30:13;;;;;;;4.60;3.57;;;8.50;97.00;;;;;;5072824;28;20202;-48
2021/04/03 11:32:43;;;;;;;6.37;4.13;;;8.20;98.70;;;;;;5071900;28;20538;-47
2021/04/03 11:35:10;;;;;;;3.97;3.30;;;7.80;99.90;;;;;;5073569;28;20181;-51
2021/04/03 11:37:36;;;;;;;6.03;3.33;;;7.70;99.90;;;;;;5087422;28;20206;-49
2021/04/03 11:40:04;;;;;;;6.13;4.63;;;7.70;99.90;;;;;;5073059;28;20174;-51
2021/04/03 11:42:29;;;;;;;5.17;3.90;;;7.80;99.90;;;;;;5085105;28;20296;-52
2021/04/03 11:44:58;;;;;;;6.63;3.80;;;7.90;99.90;;;;;;5081312;28;20233;-51
2021/04/03 11:47:24;;;;;;;5.30;3.40;;;8.10;99.90;;;;;;5085975;28;20182;-59
2021/04/03 11:49:57;;;;;;;3.37;3.03;;;8.20;99.90;;;;;;5066738;28;20305;-52
2021/04/03 11:52:24;;;;;;;2.60;2.30;;;8.60;99.90;;;;;;5076386;28;20178;-48
2021/04/03 11:54:50;;;;;;;4.00;3.10;;;10.00;99.50;;;;;;5066225;28;20240;-50
2021/04/03 11:57:16;;;;;;;3.37;2.83;;;11.90;99.90;;;;;;5075381;28;20258;-52
2021/04/03 11:59:43;;;;;;;2.90;2.60;;;13.50;92.40;;;;;;5064066;28;20618;-52
2021/04/03 12:02:08;;;;;;;3.73;3.03;;;14.20;91.60;;;;;;5078035;28;20257;-52
2021/04/03 12:04:34;;;;;;;3.50;3.00;;;14.60;95.20;;;;;;5087709;28;20659;-48
2021/04/03 12:06:59;;;;;;;3.10;2.80;;;14.50;88.70;;;;;;5080977;28;20691;-58
2021/04/03 12:09:25;;;;;;;4.03;3.13;;;14.00;88.20;;;;;;5089559;28;20720;-50
2021/04/03 12:11:50;;;;;;;3.93;2.80;;;13.40;90.70;;;;;;5086475;28;20725;-48
2021/04/03 12:14:16;;;;;;;4.27;3.30;;;12.80;90.10;;;;;;5092877;28;20181;-47
2021/04/03 12:16:42;;;;;;;4.20;3.30;;;12.10;91.60;;;;;;5077069;28;20244;-48
2021/04/03 12:19:07;;;;;;;4.07;2.70;;;10.50;91.50;;;;;;5080970;28;20166;-56
2021/04/03 12:21:33;;;;;;;5.07;3.27;;;9.60;92.60;;;;;;5074185;28;20206;-52
2021/04/03 12:23:58;;;;;;;14.27;11.10;;;9.30;96.60;;;;;;5075449;28;20197;-47
2021/04/03 12:26:24;;;;;;;5.50;3.43;;;9.00;95.60;;;;;;5086130;28;20471;-48
2021/04/03 12:28:50;;;;;;;5.97;3.20;;;8.70;97.40;;;;;;5092359;28;20739;-58
2021/04/03 12:31:16;;;;;;;4.40;3.10;;;8.50;99.70;;;;;;5080000;28;20201;-49
2021/04/03 12:33:41;;;;;;;4.87;3.47;;;8.40;98.20;;;;;;5087547;28;20166;-47
2021/04/03 12:36:08;;;;;;;3.30;2.80;;;8.60;98.30;;;;;;5076948;28;20674;-53
2021/04/03 12:38:34;;;;;;;4.27;2.93;;;8.80;99.20;;;;;;5071584;28;20240;-50
2021/04/03 12:40:59;;;;;;;4.60;2.77;;;9.10;99.90;;;;;;5064051;28;20183;-56
2021/04/03 12:43:25;;;;;;;4.07;3.13;;;9.10;97.50;;;;;;5071703;28;20179;-48
2021/04/03 12:45:51;;;;;;;3.70;3.20;;;9.10;97.70;;;;;;5066590;28;20742;-47
2021/04/03 12:48:16;;;;;;;5.60;3.53;;;9.10;98.00;;;;;;5072041;28;20189;-56
2021/04/03 12:50:42;;;;;;;5.20;3.60;;;9.30;98.20;;;;;;5092491;28;20198;-52
2021/04/03 12:53:08;;;;;;;7.27;3.90;;;9.40;96.90;;;;;;5079461;28;20166;-49
2021/04/03 12:55:33;;;;;;;5.17;3.13;;;9.10;97.30;;;;;;5088701;28;20671;-47
2021/04/03 12:57:59;;;;;;;4.20;3.47;;;8.70;97.60;;;;;;5072767;28;20197;-47
2021/04/03 13:00:25;;;;;;;6.10;3.63;;;8.50;99.50;;;;;;5069951;28;20213;-54